McKinnon, Wyoming
Current Conditions -  °F | °C
As of 9:15 AM on Monday 22 Dec 2014 (Local Time) from KFBR Reporting Station
Overcast Overcast  
Wind Chill: 20°   Ceiling: 1900
Heat Index: 32°   Visibility: 10mi
Dew Point: 30°   Wind: 21mph
Humidity: 91%   Direction: 280°W
Pressure: 29.9"   Gusts: 31mph
Location:  41.03°N, 109.94°W
Report Text: KFBR 221615Z AUTO 28018G27KT 10SM BKN019 OVC110 00/M01 A2990 RMK AO2 T00001013
Loading
Personal Weather Stations






























Interactive Weather Map New forecast layout! Learn more

10-Day Weather Forecast

Advertisements
Track Severe Weather on mobile